createdAt,value
2017-12-02T00:00:43.475Z,1016.82
2017-12-02T00:01:43.451Z,1016.83
2017-12-02T00:02:43.420Z,1016.86
2017-12-02T00:03:43.403Z,1016.88
2017-12-02T00:04:43.368Z,1016.93
2017-12-02T00:05:43.361Z,1016.92
2017-12-02T00:06:43.322Z,1016.93
2017-12-02T00:07:43.297Z,1016.94
2017-12-02T00:08:43.267Z,1016.95
2017-12-02T00:09:43.244Z,1016.93
2017-12-02T00:10:43.223Z,1016.90
2017-12-02T00:11:43.202Z,1016.91
2017-12-02T00:12:43.175Z,1016.87
2017-12-02T00:13:43.144Z,1016.86
2017-12-02T00:14:43.122Z,1016.90
2017-12-02T00:15:43.110Z,1016.89
2017-12-02T00:16:43.072Z,1016.89
2017-12-02T00:17:43.045Z,1016.90
2017-12-02T00:18:43.021Z,1016.91
2017-12-02T00:19:42.997Z,1016.90
2017-12-02T00:20:42.971Z,1016.89
2017-12-02T00:21:42.946Z,1016.94
2017-12-02T00:22:42.920Z,1016.92
2017-12-02T00:23:42.892Z,1016.95
2017-12-02T00:24:42.874Z,1016.97
2017-12-02T00:25:42.855Z,1016.96
2017-12-02T00:26:42.819Z,1016.98
2017-12-02T00:27:42.795Z,1017.00
2017-12-02T00:28:42.769Z,1017.06
2017-12-02T00:29:42.753Z,1017.05
2017-12-02T00:30:42.738Z,1017.07
2017-12-02T00:31:42.703Z,1017.08
2017-12-02T00:32:42.682Z,1017.06
2017-12-02T00:33:42.657Z,1017.11
2017-12-02T00:34:42.620Z,1017.10
2017-12-02T00:35:42.626Z,1017.07
2017-12-02T00:36:42.572Z,1017.10
2017-12-02T00:37:42.549Z,1017.12
2017-12-02T00:38:42.534Z,1017.16
2017-12-02T00:39:42.515Z,1017.20
2017-12-02T00:40:42.472Z,1017.22
2017-12-02T00:41:42.452Z,1017.26
2017-12-02T00:42:42.416Z,1017.28
2017-12-02T00:43:42.403Z,1017.31
2017-12-02T00:44:42.370Z,1017.30
2017-12-02T00:45:42.415Z,1017.28
2017-12-02T00:46:42.319Z,1017.31
2017-12-02T00:47:42.297Z,1017.35
2017-12-02T00:48:42.268Z,1017.33
2017-12-02T00:49:42.254Z,1017.31
2017-12-02T00:50:42.232Z,1017.34
2017-12-02T00:51:42.194Z,1017.34
2017-12-02T00:52:42.171Z,1017.33
2017-12-02T00:53:42.161Z,1017.36
2017-12-02T00:54:42.118Z,1017.36
2017-12-02T00:55:42.097Z,1017.38
2017-12-02T00:56:42.069Z,1017.39
2017-12-02T00:57:42.053Z,1017.37
2017-12-02T00:58:42.020Z,1017.34
2017-12-02T00:59:41.997Z,1017.39
2017-12-02T01:00:41.967Z,1017.37
2017-12-02T01:01:41.952Z,1017.39
2017-12-02T01:02:41.934Z,1017.39
2017-12-02T01:03:41.893Z,1017.39
2017-12-02T01:04:41.870Z,1017.32
2017-12-02T01:05:41.845Z,1017.36
2017-12-02T01:06:41.820Z,1017.38
2017-12-02T01:07:41.794Z,1017.37
2017-12-02T01:08:41.774Z,1017.40
2017-12-02T01:09:41.745Z,1017.36
2017-12-02T01:10:41.717Z,1017.39
2017-12-02T01:11:41.699Z,1017.39
2017-12-02T01:12:41.665Z,1017.40
2017-12-02T01:13:41.645Z,1017.46
2017-12-02T01:14:41.864Z,1017.47
2017-12-02T01:15:41.592Z,1017.51
2017-12-02T01:16:41.567Z,1017.51
2017-12-02T01:17:41.542Z,1017.55
2017-12-02T01:18:41.516Z,1017.55
2017-12-02T01:19:41.493Z,1017.53
2017-12-02T01:20:41.476Z,1017.50
2017-12-02T01:21:41.442Z,1017.54
2017-12-02T01:22:41.425Z,1017.59
2017-12-02T01:23:41.394Z,1017.57
2017-12-02T01:24:41.390Z,1017.60
2017-12-02T01:25:41.340Z,1017.60
2017-12-02T01:26:41.325Z,1017.63
2017-12-02T01:27:41.301Z,1017.65
2017-12-02T01:28:41.280Z,1017.66
2017-12-02T01:29:41.244Z,1017.69
2017-12-02T01:30:41.217Z,1017.71
2017-12-02T01:31:41.194Z,1017.70
2017-12-02T01:32:41.171Z,1017.68
2017-12-02T01:33:41.151Z,1017.71
2017-12-02T01:34:41.125Z,1017.71
2017-12-02T01:35:41.093Z,1017.72
2017-12-02T01:36:41.070Z,1017.71
2017-12-02T01:37:41.041Z,1017.72
2017-12-02T01:38:41.019Z,1017.73
2017-12-02T01:39:40.991Z,1017.75
2017-12-02T01:40:40.986Z,1017.74
2017-12-02T01:41:40.944Z,1017.75
2017-12-02T01:42:40.918Z,1017.77
2017-12-02T01:43:40.895Z,1017.84
2017-12-02T01:44:40.947Z,1017.84
2017-12-02T01:45:40.843Z,1017.87
2017-12-02T01:46:40.819Z,1017.90
2017-12-02T01:47:40.797Z,1017.92
2017-12-02T01:48:40.768Z,1017.92
2017-12-02T01:49:40.746Z,1017.93
2017-12-02T01:50:40.727Z,1017.94
2017-12-02T01:51:40.715Z,1017.91
2017-12-02T01:52:40.678Z,1017.93
2017-12-02T01:53:40.650Z,1017.91
2017-12-02T01:54:40.618Z,1017.94
2017-12-02T01:55:40.596Z,1017.90
2017-12-02T01:56:40.571Z,1017.96
2017-12-02T01:57:40.546Z,1018.01
2017-12-02T01:58:40.519Z,1018.00
2017-12-02T01:59:40.496Z,1017.99
2017-12-02T02:00:40.471Z,1018.00
2017-12-02T02:01:40.446Z,1018.01
2017-12-02T02:02:40.428Z,1018.02
2017-12-02T02:03:40.394Z,1018.01
2017-12-02T02:04:40.370Z,1018.03
2017-12-02T02:05:40.353Z,1018.02
2017-12-02T02:06:40.320Z,1018.04
2017-12-02T02:07:40.297Z,1018.07
2017-12-02T02:08:40.285Z,1018.08
2017-12-02T02:09:40.255Z,1018.09
2017-12-02T02:10:40.227Z,1018.11
2017-12-02T02:11:40.202Z,1018.05
2017-12-02T02:12:40.178Z,1018.06
2017-12-02T02:13:40.146Z,1018.11
2017-12-02T02:14:40.125Z,1018.12
2017-12-02T02:15:40.096Z,1018.12
2017-12-02T02:16:40.073Z,1018.14
2017-12-02T02:17:40.048Z,1018.14
2017-12-02T02:18:40.042Z,1018.15
2017-12-02T02:19:39.999Z,1018.11
2017-12-02T02:20:39.973Z,1018.15
2017-12-02T02:21:39.961Z,1018.14
2017-12-02T02:22:39.922Z,1018.15
2017-12-02T02:23:39.896Z,1018.16
2017-12-02T02:24:39.876Z,1018.17
2017-12-02T02:25:39.854Z,1018.17
2017-12-02T02:26:39.825Z,1018.18
2017-12-02T02:27:39.802Z,1018.16
2017-12-02T02:28:39.783Z,1018.16
2017-12-02T02:29:39.804Z,1018.11
2017-12-02T02:30:39.732Z,1018.12
2017-12-02T02:31:39.704Z,1018.16
2017-12-02T02:32:39.675Z,1018.15
2017-12-02T02:33:39.655Z,1018.17
2017-12-02T02:34:39.625Z,1018.18
2017-12-02T02:35:39.619Z,1018.22
2017-12-02T02:36:39.587Z,1018.17
2017-12-02T02:37:39.554Z,1018.22
2017-12-02T02:38:39.529Z,1018.21
2017-12-02T02:39:39.605Z,1018.18
2017-12-02T02:40:39.482Z,1018.22
2017-12-02T02:41:39.453Z,1018.24
2017-12-02T02:42:39.430Z,1018.24
2017-12-02T02:43:39.405Z,1018.23
2017-12-02T02:44:39.385Z,1018.23
2017-12-02T02:45:39.360Z,1018.24
2017-12-02T02:46:39.332Z,1018.22
2017-12-02T02:47:39.304Z,1018.23
2017-12-02T02:48:39.282Z,1018.24
2017-12-02T02:49:39.389Z,1018.26
2017-12-02T02:50:39.231Z,1018.26
2017-12-02T02:51:39.251Z,1018.27
2017-12-02T02:52:39.179Z,1018.30
2017-12-02T02:53:39.156Z,1018.32
2017-12-02T02:54:39.132Z,1018.34
2017-12-02T02:55:39.108Z,1018.36
2017-12-02T02:56:39.080Z,1018.34
2017-12-02T02:57:39.058Z,1018.32
2017-12-02T02:58:39.029Z,1018.34
2017-12-02T02:59:39.007Z,1018.38
2017-12-02T03:00:38.978Z,1018.35
2017-12-02T03:01:38.957Z,1018.34
2017-12-02T03:02:38.928Z,1018.35
2017-12-02T03:03:38.906Z,1018.32
2017-12-02T03:04:38.881Z,1018.35
2017-12-02T03:05:38.856Z,1018.34
2017-12-02T03:06:38.830Z,1018.36
2017-12-02T03:07:38.814Z,1018.38
2017-12-02T03:08:38.780Z,1018.33
2017-12-02T03:09:38.755Z,1018.36
2017-12-02T03:10:38.734Z,1018.36
2017-12-02T03:11:38.711Z,1018.36
2017-12-02T03:12:38.685Z,1018.38
2017-12-02T03:13:38.660Z,1018.42
2017-12-02T03:14:38.630Z,1018.45
2017-12-02T03:15:38.606Z,1018.46
2017-12-02T03:16:38.585Z,1018.49
2017-12-02T03:17:38.556Z,1018.49
2017-12-02T03:18:38.549Z,1018.55
2017-12-02T03:19:38.507Z,1018.52
2017-12-02T03:20:38.483Z,1018.54
2017-12-02T03:21:38.457Z,1018.56
2017-12-02T03:22:38.434Z,1018.54
2017-12-02T03:23:38.408Z,1018.54
2017-12-02T03:24:38.382Z,1018.56
2017-12-02T03:25:38.369Z,1018.57
2017-12-02T03:26:38.333Z,1018.55
2017-12-02T03:27:38.313Z,1018.58
2017-12-02T03:28:38.287Z,1018.55
2017-12-02T03:29:38.261Z,1018.51
2017-12-02T03:30:38.289Z,1018.50
2017-12-02T03:31:38.217Z,1018.55
2017-12-02T03:32:38.184Z,1018.52
2017-12-02T03:33:38.167Z,1018.58
2017-12-02T03:34:38.185Z,1018.63
2017-12-02T03:35:38.116Z,1018.58
2017-12-02T03:36:38.116Z,1018.58
2017-12-02T03:37:38.064Z,1018.62
2017-12-02T03:38:38.033Z,1018.60
2017-12-02T03:39:38.013Z,1018.60
2017-12-02T03:40:38.093Z,1018.57
2017-12-02T03:41:37.961Z,1018.58
2017-12-02T03:42:37.933Z,1018.59
2017-12-02T03:43:37.919Z,1018.58
2017-12-02T03:44:37.896Z,1018.63
2017-12-02T03:45:37.860Z,1018.59
2017-12-02T03:46:37.893Z,1018.64
2017-12-02T03:47:37.810Z,1018.60
2017-12-02T03:48:37.782Z,1018.65
2017-12-02T03:49:37.762Z,1018.63
2017-12-02T03:50:37.843Z,1018.58
2017-12-02T03:51:37.706Z,1018.60
2017-12-02T03:52:37.681Z,1018.60
2017-12-02T03:53:37.659Z,1018.63
2017-12-02T03:54:37.632Z,1018.60
2017-12-02T03:55:37.608Z,1018.63
2017-12-02T03:56:37.580Z,1018.65
2017-12-02T03:57:37.558Z,1018.71
2017-12-02T03:58:37.531Z,1018.72
2017-12-02T03:59:37.511Z,1018.76
2017-12-02T04:00:37.481Z,1018.76
2017-12-02T04:01:37.462Z,1018.81
2017-12-02T04:02:37.428Z,1018.84
2017-12-02T04:03:37.407Z,1018.84
2017-12-02T04:04:37.380Z,1018.86
2017-12-02T04:05:37.358Z,1018.88
2017-12-02T04:06:37.328Z,1018.82
2017-12-02T04:07:37.307Z,1018.86
2017-12-02T04:08:37.280Z,1018.86
2017-12-02T04:09:37.257Z,1018.85
2017-12-02T04:10:37.239Z,1018.84
2017-12-02T04:11:37.206Z,1018.85
2017-12-02T04:12:37.179Z,1018.89
2017-12-02T04:13:37.155Z,1018.85
2017-12-02T04:14:37.127Z,1018.87
2017-12-02T04:15:37.105Z,1018.84
2017-12-02T04:16:37.079Z,1018.89
2017-12-02T04:17:37.056Z,1018.84
2017-12-02T04:18:37.031Z,1018.81
2017-12-02T04:19:37.026Z,1018.83
2017-12-02T04:20:36.981Z,1018.84
2017-12-02T04:21:36.955Z,1018.84
2017-12-02T04:22:36.930Z,1018.83
2017-12-02T04:23:36.906Z,1018.87
2017-12-02T04:24:36.879Z,1018.88
2017-12-02T04:25:36.856Z,1018.94
2017-12-02T04:26:36.870Z,1018.92
2017-12-02T04:27:36.804Z,1018.90
2017-12-02T04:28:36.780Z,1018.89
2017-12-02T04:29:36.756Z,1018.87
2017-12-02T04:30:36.728Z,1018.87
2017-12-02T04:31:36.717Z,1018.82
2017-12-02T04:32:36.681Z,1018.87
2017-12-02T04:33:36.655Z,1018.84
2017-12-02T04:34:36.627Z,1018.84
2017-12-02T04:35:36.662Z,1018.84
2017-12-02T04:36:36.578Z,1018.86
2017-12-02T04:37:36.554Z,1018.85
2017-12-02T04:38:36.526Z,1018.90
2017-12-02T04:39:36.502Z,1018.88
2017-12-02T04:40:36.476Z,1018.84
2017-12-02T04:41:36.546Z,1018.87
2017-12-02T04:42:36.426Z,1018.83
2017-12-02T04:43:36.401Z,1018.86
2017-12-02T04:44:36.389Z,1018.85
2017-12-02T04:45:36.371Z,1018.85
2017-12-02T04:46:36.326Z,1018.89
2017-12-02T04:47:36.303Z,1018.90
2017-12-02T04:48:36.279Z,1018.87
2017-12-02T04:49:36.252Z,1018.88
2017-12-02T04:50:36.231Z,1018.88
2017-12-02T04:51:36.202Z,1018.89
2017-12-02T04:52:36.178Z,1018.86
2017-12-02T04:53:36.159Z,1018.88
2017-12-02T04:54:36.129Z,1018.86
2017-12-02T04:55:36.103Z,1018.82
2017-12-02T04:56:36.080Z,1018.82
2017-12-02T04:57:36.051Z,1018.84
2017-12-02T04:58:36.030Z,1018.82
2017-12-02T04:59:36.000Z,1018.80
2017-12-02T05:00:35.999Z,1018.82
2017-12-02T05:01:35.962Z,1018.80
2017-12-02T05:02:35.932Z,1018.78
2017-12-02T05:03:35.909Z,1018.81
2017-12-02T05:04:35.878Z,1018.83
2017-12-02T05:05:35.855Z,1018.82
2017-12-02T05:06:35.827Z,1018.79
2017-12-02T05:07:35.810Z,1018.81
2017-12-02T05:08:35.786Z,1018.76
2017-12-02T05:09:35.758Z,1018.77
2017-12-02T05:10:35.726Z,1018.79
2017-12-02T05:11:35.705Z,1018.80
2017-12-02T05:12:35.677Z,1018.80
2017-12-02T05:13:35.653Z,1018.80
2017-12-02T05:14:35.627Z,1018.82
2017-12-02T05:15:35.619Z,1018.80
2017-12-02T05:16:35.589Z,1018.81
2017-12-02T05:17:35.551Z,1018.81
2017-12-02T05:18:35.526Z,1018.83
2017-12-02T05:19:35.510Z,1018.81
2017-12-02T05:20:35.477Z,1018.81
2017-12-02T05:21:35.456Z,1018.81
2017-12-02T05:22:35.429Z,1018.83
2017-12-02T05:23:35.404Z,1018.83
2017-12-02T05:24:35.384Z,1018.84
2017-12-02T05:25:35.355Z,1018.90
2017-12-02T05:26:35.349Z,1018.90
2017-12-02T05:27:35.314Z,1018.91
2017-12-02T05:28:35.275Z,1018.88
2017-12-02T05:29:35.253Z,1018.90
2017-12-02T05:30:35.229Z,1018.91
2017-12-02T05:31:35.212Z,1018.90
2017-12-02T05:32:35.193Z,1018.92
2017-12-02T05:33:35.156Z,1018.97
2017-12-02T05:34:35.125Z,1018.99
2017-12-02T05:35:35.104Z,1019.01
2017-12-02T05:36:35.085Z,1019.00
2017-12-02T05:37:35.052Z,1019.00
2017-12-02T05:38:35.026Z,1019.00
2017-12-02T05:39:35.003Z,1019.03
2017-12-02T05:40:35.024Z,1019.05
2017-12-02T05:41:34.952Z,1019.05
2017-12-02T05:42:34.926Z,1019.07
2017-12-02T05:43:34.902Z,1019.11
2017-12-02T05:44:34.877Z,1019.12
2017-12-02T05:45:34.853Z,1019.14
2017-12-02T05:46:34.847Z,1019.17
2017-12-02T05:47:34.811Z,1019.17
2017-12-02T05:48:34.781Z,1019.16
2017-12-02T05:49:34.751Z,1019.17
2017-12-02T05:50:34.758Z,1019.21
2017-12-02T05:51:34.703Z,1019.16
2017-12-02T05:52:34.681Z,1019.19
2017-12-02T05:53:34.654Z,1019.18
2017-12-02T05:54:34.632Z,1019.22
2017-12-02T05:55:34.603Z,1019.22
2017-12-02T05:56:34.580Z,1019.25
2017-12-02T05:57:34.554Z,1019.27
2017-12-02T05:58:34.531Z,1019.30
2017-12-02T05:59:34.500Z,1019.31
2017-12-02T06:00:34.479Z,1019.34
2017-12-02T06:01:34.459Z,1019.38
2017-12-02T06:02:34.432Z,1019.40
2017-12-02T06:03:34.410Z,1019.42
2017-12-02T06:04:34.394Z,1019.42
2017-12-02T06:05:34.352Z,1019.43
2017-12-02T06:06:34.328Z,1019.46
2017-12-02T06:07:34.301Z,1019.44
2017-12-02T06:08:34.272Z,1019.48
2017-12-02T06:09:34.250Z,1019.48
2017-12-02T06:10:34.223Z,1019.45
2017-12-02T06:11:34.199Z,1019.53
2017-12-02T06:12:34.172Z,1019.54
2017-12-02T06:13:34.150Z,1019.60
2017-12-02T06:14:34.122Z,1019.60
2017-12-02T06:15:34.099Z,1019.65
2017-12-02T06:16:34.072Z,1019.63
2017-12-02T06:17:34.048Z,1019.69
2017-12-02T06:18:34.021Z,1019.68
2017-12-02T06:19:33.997Z,1019.71
2017-12-02T06:20:33.981Z,1019.69
2017-12-02T06:21:33.949Z,1019.70
2017-12-02T06:22:33.920Z,1019.73
2017-12-02T06:23:33.896Z,1019.74
2017-12-02T06:24:33.871Z,1019.76
2017-12-02T06:25:33.849Z,1019.74
2017-12-02T06:26:33.823Z,1019.74
2017-12-02T06:27:33.796Z,1019.73
2017-12-02T06:28:33.770Z,1019.78
2017-12-02T06:29:33.745Z,1019.74
2017-12-02T06:30:33.718Z,1019.69
2017-12-02T06:31:33.713Z,1019.75
2017-12-02T06:32:33.674Z,1019.82
2017-12-02T06:33:33.645Z,1019.78
2017-12-02T06:34:33.669Z,1019.85
2017-12-02T06:35:33.606Z,1019.82
2017-12-02T06:36:33.568Z,1019.86
2017-12-02T06:37:33.585Z,1019.90
2017-12-02T06:38:33.519Z,1019.86
2017-12-02T06:39:33.495Z,1019.91
2017-12-02T06:40:33.469Z,1019.91
2017-12-02T06:41:33.458Z,1019.96
2017-12-02T06:42:33.418Z,1019.93
2017-12-02T06:43:33.395Z,1020.00
2017-12-02T06:44:33.379Z,1019.97
2017-12-02T06:45:33.408Z,1019.92
2017-12-02T06:46:33.318Z,1019.92
2017-12-02T06:47:33.301Z,1019.93
2017-12-02T06:48:33.273Z,1019.97
2017-12-02T06:49:33.243Z,1019.97
2017-12-02T06:50:33.217Z,1019.98
2017-12-02T06:51:33.192Z,1019.99
2017-12-02T06:52:33.167Z,1019.96
2017-12-02T06:53:33.142Z,1019.98
2017-12-02T06:54:33.117Z,1020.00
2017-12-02T06:55:33.091Z,1020.03
2017-12-02T06:56:33.071Z,1020.01
2017-12-02T06:57:33.041Z,1020.03
2017-12-02T06:58:33.017Z,1019.98
2017-12-02T06:59:32.993Z,1020.01
2017-12-02T07:00:32.970Z,1020.04
2017-12-02T07:01:32.945Z,1019.99
2017-12-02T07:02:32.915Z,1020.02
2017-12-02T07:03:32.889Z,1020.02
2017-12-02T07:04:32.882Z,1020.02
2017-12-02T07:05:32.842Z,1020.04
2017-12-02T07:06:32.815Z,1020.05
2017-12-02T07:07:32.790Z,1020.05
2017-12-02T07:08:32.765Z,1020.01
2017-12-02T07:09:32.742Z,1020.00
2017-12-02T07:10:32.713Z,1020.00
2017-12-02T07:11:32.695Z,1019.99
2017-12-02T07:12:32.663Z,1019.99
2017-12-02T07:13:32.639Z,1019.99
2017-12-02T07:14:32.614Z,1020.03
2017-12-02T07:15:32.589Z,1020.00
2017-12-02T07:16:32.563Z,1020.00
2017-12-02T07:17:32.540Z,1019.99
2017-12-02T07:18:32.521Z,1020.06
2017-12-02T07:19:32.488Z,1019.98
2017-12-02T07:20:32.467Z,1020.01
2017-12-02T07:21:32.438Z,1020.07
2017-12-02T07:22:32.412Z,1020.03
2017-12-02T07:23:32.390Z,1020.06
2017-12-02T07:24:32.362Z,1020.08
2017-12-02T07:25:32.336Z,1020.10
2017-12-02T07:26:32.362Z,1020.10
2017-12-02T07:27:32.288Z,1020.09
2017-12-02T07:28:32.263Z,1020.12
2017-12-02T07:29:32.246Z,1020.17
2017-12-02T07:30:32.259Z,1020.14
2017-12-02T07:31:32.186Z,1020.12
2017-12-02T07:32:32.192Z,1020.10
2017-12-02T07:33:32.137Z,1020.11
2017-12-02T07:34:32.108Z,1020.09
2017-12-02T07:35:32.083Z,1020.09
2017-12-02T07:36:32.114Z,1020.06
2017-12-02T07:37:32.036Z,1020.07
2017-12-02T07:38:32.008Z,1020.10
2017-12-02T07:39:31.986Z,1020.11
2017-12-02T07:40:32.092Z,1020.12
2017-12-02T07:41:31.935Z,1020.12
2017-12-02T07:42:31.919Z,1020.03
2017-12-02T07:43:31.884Z,1020.05
2017-12-02T07:44:31.905Z,1020.03
2017-12-02T07:45:31.836Z,1020.03
2017-12-02T07:46:31.802Z,1019.99
2017-12-02T07:47:31.778Z,1020.02
2017-12-02T07:48:31.756Z,1020.06
2017-12-02T07:49:31.735Z,1020.06
2017-12-02T07:50:31.702Z,1020.06
2017-12-02T07:51:31.678Z,1020.04
2017-12-02T07:52:31.652Z,1020.04
2017-12-02T07:53:31.627Z,1020.07
2017-12-02T07:54:31.603Z,1020.05
2017-12-02T07:55:31.574Z,1020.08
2017-12-02T07:56:31.552Z,1020.07
2017-12-02T07:57:31.528Z,1020.07
2017-12-02T07:58:31.502Z,1020.08
2017-12-02T07:59:31.473Z,1020.11
2017-12-02T08:00:31.449Z,1020.06
2017-12-02T08:01:31.424Z,1020.09
2017-12-02T08:02:31.404Z,1020.16
2017-12-02T08:03:31.373Z,1020.17
2017-12-02T08:04:31.359Z,1020.14
2017-12-02T08:05:31.323Z,1020.17
2017-12-02T08:06:31.297Z,1020.16
2017-12-02T08:07:31.271Z,1020.17
2017-12-02T08:08:31.245Z,1020.13
2017-12-02T08:09:31.221Z,1020.14
2017-12-02T08:10:31.196Z,1020.11
2017-12-02T08:11:31.171Z,1020.11
2017-12-02T08:12:31.146Z,1020.10
2017-12-02T08:13:31.123Z,1020.10
2017-12-02T08:14:31.094Z,1020.11
2017-12-02T08:15:31.070Z,1020.17
2017-12-02T08:16:31.055Z,1020.14
2017-12-02T08:17:31.018Z,1020.20
2017-12-02T08:18:30.993Z,1020.20
2017-12-02T08:19:30.974Z,1020.12
2017-12-02T08:20:30.943Z,1020.16
2017-12-02T08:21:30.973Z,1020.11
2017-12-02T08:22:30.893Z,1020.14
2017-12-02T08:23:30.869Z,1020.16
2017-12-02T08:24:30.853Z,1020.16
2017-12-02T08:25:30.836Z,1020.16
2017-12-02T08:26:30.800Z,1020.18
2017-12-02T08:27:30.814Z,1020.20
2017-12-02T08:28:30.741Z,1020.20
2017-12-02T08:29:30.717Z,1020.23
2017-12-02T08:30:30.689Z,1020.28
2017-12-02T08:31:30.688Z,1020.28
2017-12-02T08:32:30.641Z,1020.34
2017-12-02T08:33:30.617Z,1020.34
2017-12-02T08:34:30.589Z,1020.31
2017-12-02T08:35:30.567Z,1020.33
2017-12-02T08:36:30.538Z,1020.30
2017-12-02T08:37:30.607Z,1020.33
2017-12-02T08:38:30.489Z,1020.32
2017-12-02T08:39:30.477Z,1020.31
2017-12-02T08:40:30.438Z,1020.31
2017-12-02T08:41:30.417Z,1020.39
2017-12-02T08:42:30.447Z,1020.40
2017-12-02T08:43:30.366Z,1020.41
2017-12-02T08:44:30.337Z,1020.45
2017-12-02T08:45:30.315Z,1020.50
2017-12-02T08:46:30.292Z,1020.51
2017-12-02T08:47:30.264Z,1020.52
2017-12-02T08:48:30.242Z,1020.50
2017-12-02T08:49:30.218Z,1020.45
2017-12-02T08:50:30.196Z,1020.45
2017-12-02T08:51:30.165Z,1020.47
2017-12-02T08:52:30.139Z,1020.46
2017-12-02T08:53:30.116Z,1020.52
2017-12-02T08:54:30.088Z,1020.56
2017-12-02T08:55:30.065Z,1020.59
2017-12-02T08:56:30.044Z,1020.61
2017-12-02T08:57:30.019Z,1020.58
2017-12-02T08:58:29.993Z,1020.66
2017-12-02T08:59:29.972Z,1020.62
2017-12-02T09:00:29.947Z,1020.64
2017-12-02T09:01:29.917Z,1020.63
2017-12-02T09:02:29.893Z,1020.66
2017-12-02T09:03:29.865Z,1020.68
2017-12-02T09:04:29.896Z,1020.65
2017-12-02T09:05:29.818Z,1020.65
2017-12-02T09:06:29.793Z,1020.64
2017-12-02T09:07:29.766Z,1020.63
2017-12-02T09:08:29.745Z,1020.65
2017-12-02T09:09:29.723Z,1020.69
2017-12-02T09:10:29.692Z,1020.65
2017-12-02T09:11:29.679Z,1020.69
2017-12-02T09:12:29.643Z,1020.66
2017-12-02T09:13:29.625Z,1020.70
2017-12-02T09:14:29.594Z,1020.71
2017-12-02T09:15:29.571Z,1020.74
2017-12-02T09:16:29.604Z,1020.78
2017-12-02T09:17:29.529Z,1020.77
2017-12-02T09:18:29.501Z,1020.76
2017-12-02T09:19:29.490Z,1020.79
2017-12-02T09:20:29.451Z,1020.77
2017-12-02T09:21:29.424Z,1020.80
2017-12-02T09:22:29.438Z,1020.79
2017-12-02T09:23:29.388Z,1020.84
2017-12-02T09:24:29.365Z,1020.84
2017-12-02T09:25:29.324Z,1020.84
2017-12-02T09:26:29.305Z,1020.84
2017-12-02T09:27:29.275Z,1020.89
2017-12-02T09:28:29.259Z,1020.88
2017-12-02T09:29:29.224Z,1020.94
2017-12-02T09:30:29.199Z,1020.88
2017-12-02T09:31:29.174Z,1020.89
2017-12-02T09:32:29.251Z,1020.94
2017-12-02T09:33:29.159Z,1020.97
2017-12-02T09:34:29.100Z,1021.01
2017-12-02T09:35:29.076Z,1021.03
2017-12-02T09:36:29.066Z,1021.10
2017-12-02T09:37:29.029Z,1021.10
2017-12-02T09:38:29.002Z,1021.10
2017-12-02T09:39:28.981Z,1021.14
2017-12-02T09:40:28.964Z,1021.13
2017-12-02T09:41:28.929Z,1021.12
2017-12-02T09:42:28.917Z,1021.17
2017-12-02T09:43:28.880Z,1021.14
2017-12-02T09:44:28.861Z,1021.13
2017-12-02T09:45:28.832Z,1021.19
2017-12-02T09:46:28.807Z,1021.19
2017-12-02T09:47:28.789Z,1021.23
2017-12-02T09:48:28.759Z,1021.21
2017-12-02T09:49:28.748Z,1021.22
2017-12-02T09:50:28.710Z,1021.17
2017-12-02T09:51:28.687Z,1021.18
2017-12-02T09:52:28.662Z,1021.19
2017-12-02T09:53:28.644Z,1021.17
2017-12-02T09:54:28.643Z,1021.17
2017-12-02T09:55:28.588Z,1021.22
2017-12-02T09:56:28.560Z,1021.24
2017-12-02T09:57:28.544Z,1021.23
2017-12-02T09:58:28.521Z,1021.27
2017-12-02T09:59:28.487Z,1021.25
2017-12-02T10:00:28.464Z,1021.27
2017-12-02T10:01:28.445Z,1021.22
2017-12-02T10:02:28.413Z,1021.28
2017-12-02T10:03:28.390Z,1021.26
2017-12-02T10:04:28.373Z,1021.25
2017-12-02T10:05:28.343Z,1021.23
2017-12-02T10:06:28.314Z,1021.22
2017-12-02T10:07:28.293Z,1021.26
2017-12-02T10:08:28.266Z,1021.28
2017-12-02T10:09:28.243Z,1021.25
2017-12-02T10:10:28.216Z,1021.27
2017-12-02T10:11:28.198Z,1021.25
2017-12-02T10:12:28.171Z,1021.20
2017-12-02T10:13:28.152Z,1021.21
2017-12-02T10:14:28.117Z,1021.15
2017-12-02T10:15:28.102Z,1021.12
2017-12-02T10:16:28.071Z,1021.17
2017-12-02T10:17:28.051Z,1021.14
2017-12-02T10:18:28.026Z,1021.13
2017-12-02T10:19:27.995Z,1021.16
2017-12-02T10:20:27.971Z,1021.13
2017-12-02T10:21:28.002Z,1021.12
2017-12-02T10:22:27.940Z,1021.17
2017-12-02T10:23:27.897Z,1021.19
2017-12-02T10:24:27.896Z,1021.18
2017-12-02T10:25:27.853Z,1021.17
2017-12-02T10:26:27.824Z,1021.19
2017-12-02T10:27:27.818Z,1021.22
2017-12-02T10:28:27.776Z,1021.19
2017-12-02T10:29:27.749Z,1021.24
2017-12-02T10:30:27.738Z,1021.20
2017-12-02T10:31:27.809Z,1021.18
2017-12-02T10:32:27.684Z,1021.19
2017-12-02T10:33:27.690Z,1021.15
2017-12-02T10:34:27.632Z,1021.16
2017-12-02T10:35:27.607Z,1021.17
2017-12-02T10:36:27.583Z,1021.15
2017-12-02T10:37:27.690Z,1021.17
2017-12-02T10:38:27.534Z,1021.16
2017-12-02T10:39:27.512Z,1021.14
2017-12-02T10:40:27.487Z,1021.12
2017-12-02T10:41:27.473Z,1021.08
2017-12-02T10:42:27.442Z,1021.04
2017-12-02T10:43:27.414Z,1021.03
2017-12-02T10:44:27.389Z,1021.08
2017-12-02T10:45:27.359Z,1021.06
2017-12-02T10:46:27.339Z,1021.06
2017-12-02T10:47:27.311Z,1021.04
2017-12-02T10:48:27.290Z,1021.03
2017-12-02T10:49:27.264Z,1021.02
2017-12-02T10:50:27.238Z,1021.01
2017-12-02T10:51:27.214Z,1020.95
2017-12-02T10:52:27.188Z,1020.97
2017-12-02T10:53:27.168Z,1020.99
2017-12-02T10:54:27.145Z,1020.98
2017-12-02T10:55:27.126Z,1021.03
2017-12-02T10:56:27.095Z,1021.06
2017-12-02T10:57:27.069Z,1021.03
2017-12-02T10:58:27.062Z,1021.03
2017-12-02T10:59:27.021Z,1021.04
2017-12-02T11:00:26.996Z,1020.99
2017-12-02T11:01:26.973Z,1020.99
2017-12-02T11:02:26.954Z,1021.01
2017-12-02T11:03:26.925Z,1020.92
2017-12-02T11:04:26.898Z,1020.89
2017-12-02T11:05:26.876Z,1020.87
2017-12-02T11:06:26.871Z,1020.90
2017-12-02T11:07:26.828Z,1020.83
2017-12-02T11:08:26.806Z,1020.90
2017-12-02T11:09:26.798Z,1020.90
2017-12-02T11:10:26.756Z,1020.95
2017-12-02T11:11:26.737Z,1020.90
2017-12-02T11:12:26.704Z,1020.94
2017-12-02T11:13:26.684Z,1020.96
2017-12-02T11:14:26.657Z,1020.93
2017-12-02T11:15:26.632Z,1020.96
2017-12-02T11:16:26.608Z,1020.94
2017-12-02T11:17:26.594Z,1020.88
2017-12-02T11:18:26.557Z,1020.92
2017-12-02T11:19:26.543Z,1020.89
2017-12-02T11:20:26.512Z,1020.87
2017-12-02T11:21:26.490Z,1020.82
2017-12-02T11:22:26.763Z,1020.85
2017-12-02T11:23:26.446Z,1020.83
2017-12-02T11:24:26.414Z,1020.82
2017-12-02T11:25:26.400Z,1020.83
2017-12-02T11:26:26.381Z,1020.77
2017-12-02T11:27:26.345Z,1020.81
2017-12-02T11:28:26.327Z,1020.81
2017-12-02T11:29:26.295Z,1020.83
2017-12-02T11:30:26.272Z,1020.89
2017-12-02T11:31:26.244Z,1020.94
2017-12-02T11:32:26.350Z,1020.96
2017-12-02T11:33:26.200Z,1020.96
2017-12-02T11:34:26.196Z,1020.94
2017-12-02T11:35:26.163Z,1020.92
2017-12-02T11:36:26.177Z,1020.94
2017-12-02T11:37:26.102Z,1020.93
2017-12-02T11:38:26.087Z,1020.89
2017-12-02T11:39:26.061Z,1020.86
2017-12-02T11:40:26.030Z,1020.83
2017-12-02T11:41:26.007Z,1020.81
2017-12-02T11:42:26.004Z,1020.86
2017-12-02T11:43:25.960Z,1020.85
2017-12-02T11:44:25.943Z,1020.86
2017-12-02T11:45:25.913Z,1020.82
2017-12-02T11:46:25.888Z,1020.79
2017-12-02T11:47:25.862Z,1020.80
2017-12-02T11:48:25.872Z,1020.77
2017-12-02T11:49:25.813Z,1020.77
2017-12-02T11:50:25.789Z,1020.72
2017-12-02T11:51:25.764Z,1020.73
2017-12-02T11:52:25.743Z,1020.71
2017-12-02T11:53:25.732Z,1020.75
2017-12-02T11:54:25.690Z,1020.75
2017-12-02T11:55:25.669Z,1020.74
2017-12-02T11:56:25.663Z,1020.79
2017-12-02T11:57:25.625Z,1020.77
2017-12-02T11:58:25.606Z,1020.71
2017-12-02T11:59:25.577Z,1020.70
2017-12-02T12:00:25.547Z,1020.72
2017-12-02T12:01:25.529Z,1020.71
2017-12-02T12:02:25.496Z,1020.71
2017-12-02T12:03:25.472Z,1020.69
2017-12-02T12:04:25.456Z,1020.71
2017-12-02T12:05:25.426Z,1020.69